Brainard, New York
Current Conditions -  °F | °C
As of 8:54 PM on Tuesday 21 Oct 2014 (Local Time) from KPSF Reporting Station
Overcast Overcast  
Wind Chill: 50°   Ceiling: 1200
Heat Index: 50°   Visibility: 7mi
Dew Point: 49°   Wind: 5mph
Humidity: 96%   Direction: 50°NE
Pressure: 29.95"   Gusts: NA
Location:  42.5°N, 73.51°W
Report Text: KPSF 220054Z AUTO 05004KT 7SM OVC012 10/09 A2995 RMK AO2 SLP137 T01000094
Loading
Personal Weather Stations






























Interactive Weather Map New forecast layout! Learn more

10-Day Weather Forecast

Advertisements
Track Severe Weather on mobile